Time;durP1;ratioP1;P1;durP2;ratioP2;P2;SDS_P1;SDS_P2;PMS_P1;PMS_P2;Temp;Humidity;BMP_temperature;BMP_pressure;BME280_temperature;BME280_humidity;BME280_pressure;Samples;Min_cycle;Max_cycle;Signal;HPM_P1;HPM_P2
2023/05/09 00:00:12;;;;;;;5.65;3.72;;;14.40;94.20;;;;;;4990460;28;20594;-74
2023/05/09 00:02:39;;;;;;;5.18;3.25;;;14.40;94.20;;;;;;4994362;28;20217;-72
2023/05/09 00:05:16;;;;;;;3.78;3.20;;;14.30;94.30;;;;;;4999512;28;20600;-75
2023/05/09 00:07:43;;;;;;;4.15;3.80;;;14.30;94.40;;;;;;5007970;28;20292;-73
2023/05/09 00:10:12;;;;;;;4.47;2.85;;;14.30;94.30;;;;;;5002057;28;20304;-73
2023/05/09 00:12:46;;;;;;;3.25;2.80;;;14.20;94.30;;;;;;4993970;28;20245;-72
2023/05/09 00:15:12;;;;;;;5.20;3.53;;;14.20;94.30;;;;;;4996999;28;20201;-75
2023/05/09 00:17:47;;;;;;;4.85;3.92;;;14.10;94.30;;;;;;5004461;28;20739;-76
2023/05/09 00:20:15;;;;;;;5.70;3.95;;;14.10;94.40;;;;;;4990830;28;20227;-73
2023/05/09 00:22:42;;;;;;;6.22;3.67;;;14.10;94.40;;;;;;5014213;28;20283;-74
2023/05/09 00:25:11;;;;;;;4.30;3.88;;;14.10;94.50;;;;;;4997687;28;20284;-72
2023/05/09 00:27:56;;;;;;;4.10;3.80;;;14.00;94.50;;;;;;5028596;23;20233;-81
2023/05/09 00:30:23;;;;;;;4.95;3.88;;;14.00;94.60;;;;;;5060068;28;20192;-82
2023/05/09 00:32:53;;;;;;;4.47;3.55;;;13.90;94.70;;;;;;5060690;28;20192;-81
2023/05/09 00:35:21;;;;;;;3.42;3.10;;;13.90;94.70;;;;;;5060298;28;20183;-81
2023/05/09 00:37:48;;;;;;;5.75;3.47;;;13.90;94.70;;;;;;5056095;28;20196;-81
2023/05/09 00:40:15;;;;;;;3.92;3.45;;;13.80;94.70;;;;;;5059830;28;20231;-81
2023/05/09 00:42:42;;;;;;;4.28;3.88;;;13.80;94.70;;;;;;5058914;28;20228;-80
2023/05/09 00:45:10;;;;;;;5.25;3.90;;;13.80;94.70;;;;;;5072188;28;20180;-82
2023/05/09 00:47:38;;;;;;;6.97;3.40;;;13.80;94.70;;;;;;5060129;28;20259;-80
2023/05/09 00:50:06;;;;;;;6.07;4.10;;;13.70;94.70;;;;;;5060040;28;20219;-81
2023/05/09 00:52:34;;;;;;;5.75;3.35;;;13.70;94.70;;;;;;5050728;28;20228;-81
2023/05/09 00:55:03;;;;;;;5.45;3.70;;;13.70;94.70;;;;;;5055193;28;20379;-82
2023/05/09 00:57:30;;;;;;;4.65;3.20;;;13.80;94.70;;;;;;5062528;28;20267;-81
2023/05/09 01:00:03;;;;;;;9.93;3.80;;;13.70;94.70;;;;;;5051038;28;20218;-81
2023/05/09 01:02:31;;;;;;;6.80;4.38;;;13.60;94.60;;;;;;5059168;28;20176;-81
2023/05/09 01:04:58;;;;;;;6.18;3.38;;;13.80;94.60;;;;;;5059373;28;20184;-81
2023/05/09 01:07:31;;;;;;;8.73;3.30;;;13.70;94.50;;;;;;5047467;28;20220;-81
2023/05/09 01:10:05;;;;;;;3.95;3.63;;;13.60;94.60;;;;;;5046257;28;20224;-81
2023/05/09 01:12:41;;;;;;;3.80;3.00;;;13.70;94.90;;;;;;5040815;28;20234;-81
2023/05/09 01:15:14;;;;;;;5.20;3.20;;;13.60;94.50;;;;;;5052251;28;20281;-80
2023/05/09 01:17:53;;;;;;;4.00;3.67;;;13.60;94.30;;;;;;5042024;28;20224;-81
2023/05/09 01:20:30;;;;;;;6.63;3.30;;;13.60;94.30;;;;;;5047836;28;20572;-81
2023/05/09 01:23:12;;;;;;;5.25;3.28;;;13.70;94.20;;;;;;5044701;28;20192;-81
2023/05/09 01:25:58;;;;;;;4.22;3.25;;;13.70;94.20;;;;;;5046403;28;20196;-80
2023/05/09 01:28:36;;;;;;;5.40;3.22;;;13.50;93.90;;;;;;5040287;28;20236;-81
2023/05/09 01:31:08;;;;;;;3.50;3.20;;;13.40;93.90;;;;;;5044225;28;20192;-81
2023/05/09 01:33:40;;;;;;;3.85;3.10;;;13.40;94.10;;;;;;5044198;28;20200;-82
2023/05/09 01:36:12;;;;;;;3.75;3.10;;;13.50;94.00;;;;;;5043798;28;20199;-80
2023/05/09 01:38:42;;;;;;;5.30;3.10;;;13.40;93.90;;;;;;5044427;28;20567;-81
2023/05/09 01:41:12;;;;;;;3.78;3.20;;;13.40;93.80;;;;;;5037616;28;20228;-80
2023/05/09 01:43:40;;;;;;;5.28;3.42;;;13.40;93.70;;;;;;5045912;28;20230;-80
2023/05/09 01:46:09;;;;;;;4.65;2.70;;;13.40;93.80;;;;;;5044729;28;20223;-82
2023/05/09 01:48:37;;;;;;;4.85;2.38;;;13.30;93.60;;;;;;5057347;28;20204;-80
2023/05/09 01:51:06;;;;;;;5.60;3.35;;;13.30;93.60;;;;;;5051061;28;20223;-80
2023/05/09 01:53:34;;;;;;;6.82;3.63;;;13.30;93.60;;;;;;5044240;28;20682;-80
2023/05/09 01:56:04;;;;;;;5.75;2.85;;;13.40;93.60;;;;;;5042345;28;20203;-80
2023/05/09 01:58:33;;;;;;;5.63;3.38;;;13.20;93.50;;;;;;5038326;28;20221;-80
2023/05/09 02:01:02;;;;;;;4.30;2.80;;;13.20;93.50;;;;;;5037899;28;20239;-82
2023/05/09 02:03:30;;;;;;;4.85;3.47;;;13.10;93.40;;;;;;5046125;28;20234;-82
2023/05/09 02:05:58;;;;;;;6.32;3.47;;;13.10;93.50;;;;;;5036612;28;20764;-82
2023/05/09 02:08:26;;;;;;;7.07;3.17;;;13.10;93.50;;;;;;5031723;28;20284;-79
2023/05/09 02:10:53;;;;;;;2.78;2.55;;;13.00;93.50;;;;;;5036911;28;20241;-79
2023/05/09 02:13:20;;;;;;;7.68;4.20;;;13.10;93.50;;;;;;5047435;28;20276;-80
2023/05/09 02:15:47;;;;;;;5.68;2.92;;;13.00;93.40;;;;;;5043696;28;20291;-80
2023/05/09 02:18:15;;;;;;;3.85;3.15;;;13.00;93.50;;;;;;5049638;28;20211;-80
2023/05/09 02:20:44;;;;;;;8.02;3.25;;;12.90;93.40;;;;;;5041585;28;20234;-80
2023/05/09 02:23:11;;;;;;;4.32;2.58;;;12.90;93.50;;;;;;5042546;28;20217;-79
2023/05/09 02:25:40;;;;;;;5.40;3.10;;;12.90;93.50;;;;;;5042858;28;20238;-81
2023/05/09 02:28:08;;;;;;;5.25;3.65;;;12.90;93.50;;;;;;5035925;28;20617;-80
2023/05/09 02:30:41;;;;;;;4.32;2.60;;;12.80;93.60;;;;;;5042911;28;20297;-82
2023/05/09 02:33:11;;;;;;;4.55;2.95;;;12.70;93.70;;;;;;5043161;28;20284;-79
2023/05/09 02:35:39;;;;;;;4.28;3.10;;;12.70;94.00;;;;;;5042971;28;20207;-80
2023/05/09 02:38:08;;;;;;;5.25;3.05;;;12.70;93.80;;;;;;5049884;28;20274;-82
2023/05/09 02:40:36;;;;;;;3.50;3.20;;;12.60;93.80;;;;;;5048668;28;20232;-81
2023/05/09 02:43:02;;;;;;;5.47;4.05;;;12.70;94.10;;;;;;5030641;28;20223;-82
2023/05/09 02:45:30;;;;;;;3.95;3.40;;;12.60;94.00;;;;;;5043842;28;20246;-81
2023/05/09 02:47:57;;;;;;;3.85;3.55;;;12.60;94.00;;;;;;5053911;28;20202;-81
2023/05/09 02:50:24;;;;;;;6.53;2.90;;;12.50;94.00;;;;;;5044736;28;20214;-80
2023/05/09 02:52:50;;;;;;;3.72;3.30;;;12.50;94.00;;;;;;5051334;28;20211;-79
2023/05/09 02:55:19;;;;;;;4.22;2.85;;;12.50;94.10;;;;;;5042027;28;20218;-80
2023/05/09 02:57:46;;;;;;;6.18;3.47;;;12.50;94.20;;;;;;5043053;28;20210;-80
2023/05/09 03:00:14;;;;;;;3.70;3.00;;;12.50;94.10;;;;;;5042201;28;20287;-80
2023/05/09 03:02:41;;;;;;;6.15;3.30;;;12.40;94.10;;;;;;5044367;28;20229;-80
2023/05/09 03:05:09;;;;;;;5.25;2.80;;;12.40;94.20;;;;;;5042357;28;20222;-79
2023/05/09 03:07:35;;;;;;;4.50;3.67;;;12.30;94.00;;;;;;5043906;28;20560;-80
2023/05/09 03:10:02;;;;;;;10.93;3.40;;;12.40;94.10;;;;;;5045540;28;20305;-82
2023/05/09 03:12:31;;;;;;;4.85;3.47;;;12.30;94.10;;;;;;5044244;28;20210;-80
2023/05/09 03:14:58;;;;;;;5.82;3.50;;;12.40;94.20;;;;;;5043971;28;20250;-81
2023/05/09 03:17:25;;;;;;;3.50;2.75;;;12.40;94.10;;;;;;5043738;28;20242;-80
2023/05/09 03:19:52;;;;;;;5.45;3.50;;;12.30;94.10;;;;;;5047565;28;20262;-79
2023/05/09 03:22:18;;;;;;;3.83;3.15;;;12.30;94.20;;;;;;5045873;28;20661;-81
2023/05/09 03:24:45;;;;;;;5.60;3.88;;;12.20;94.20;;;;;;5043370;28;20266;-81
2023/05/09 03:27:12;;;;;;;6.35;3.55;;;12.20;94.30;;;;;;5043061;28;20213;-82
2023/05/09 03:29:40;;;;;;;4.00;2.80;;;12.30;94.30;;;;;;5041230;28;20230;-80
2023/05/09 03:32:07;;;;;;;7.38;3.58;;;12.20;94.40;;;;;;5042855;28;20202;-83
2023/05/09 03:34:34;;;;;;;5.45;3.35;;;12.10;94.30;;;;;;5043238;28;20227;-81
2023/05/09 03:37:01;;;;;;;4.93;3.30;;;12.10;94.40;;;;;;5043674;28;20226;-81
2023/05/09 03:39:28;;;;;;;4.05;3.22;;;12.10;94.40;;;;;;5048852;28;20710;-82
2023/05/09 03:41:55;;;;;;;4.78;3.53;;;12.10;94.50;;;;;;5053573;28;20318;-83
2023/05/09 03:44:22;;;;;;;5.43;3.22;;;12.00;94.60;;;;;;5045599;28;20182;-82
2023/05/09 03:46:51;;;;;;;6.03;3.20;;;12.00;94.60;;;;;;5044672;28;20287;-81
2023/05/09 03:49:18;;;;;;;4.88;3.72;;;12.00;94.90;;;;;;5044895;28;20305;-81
2023/05/09 03:51:45;;;;;;;3.85;3.45;;;12.00;94.80;;;;;;5046285;28;20296;-81
2023/05/09 03:54:12;;;;;;;5.40;4.22;;;12.00;94.80;;;;;;5044922;28;20210;-80
2023/05/09 03:56:39;;;;;;;4.53;3.65;;;12.00;94.80;;;;;;5054474;28;20214;-80
2023/05/09 03:59:06;;;;;;;3.95;3.50;;;12.20;94.90;;;;;;5050487;28;20266;-80
2023/05/09 04:01:33;;;;;;;6.82;3.88;;;12.00;94.80;;;;;;5042429;28;20231;-79
2023/05/09 04:04:01;;;;;;;3.75;3.20;;;11.90;94.90;;;;;;5039707;28;20215;-81
2023/05/09 04:06:28;;;;;;;3.80;3.40;;;12.00;95.00;;;;;;5043980;28;20281;-80
2023/05/09 04:08:56;;;;;;;9.35;3.60;;;12.00;94.90;;;;;;5044565;28;20223;-81
2023/05/09 04:11:23;;;;;;;6.80;3.55;;;12.00;95.10;;;;;;5045039;28;20207;-81
2023/05/09 04:13:50;;;;;;;4.43;3.28;;;12.10;95.10;;;;;;5043570;28;20301;-79
2023/05/09 04:16:17;;;;;;;5.82;3.63;;;12.10;95.00;;;;;;5056339;28;20228;-79
2023/05/09 04:18:43;;;;;;;5.90;3.72;;;12.10;94.90;;;;;;5050385;28;20310;-80
2023/05/09 04:21:12;;;;;;;6.50;4.22;;;12.30;95.00;;;;;;5032064;28;20208;-80
2023/05/09 04:23:39;;;;;;;7.03;4.30;;;12.20;94.90;;;;;;5041539;28;20230;-79
2023/05/09 04:26:06;;;;;;;5.20;4.47;;;12.20;94.80;;;;;;5044687;28;20270;-80
2023/05/09 04:28:34;;;;;;;7.43;4.97;;;12.20;94.80;;;;;;5043393;28;20239;-80
2023/05/09 04:31:00;;;;;;;6.20;4.53;;;12.30;94.90;;;;;;5043584;28;20295;-81
2023/05/09 04:33:28;;;;;;;8.75;4.57;;;12.40;94.80;;;;;;5049795;28;20214;-80
2023/05/09 04:35:56;;;;;;;8.32;5.10;;;12.40;94.80;;;;;;5045169;28;20215;-81
2023/05/09 04:38:24;;;;;;;4.60;3.60;;;12.50;94.70;;;;;;5042456;28;20232;-80
2023/05/09 04:40:51;;;;;;;7.05;4.43;;;12.90;94.40;;;;;;5046051;28;20307;-81
2023/05/09 04:43:18;;;;;;;15.63;4.80;;;13.40;93.90;;;;;;5045203;28;20220;-80
2023/05/09 04:45:46;;;;;;;18.05;5.78;;;13.90;93.40;;;;;;5047739;28;20204;-81
2023/05/09 04:48:12;;;;;;;6.93;4.32;;;14.20;92.60;;;;;;5042304;28;20207;-81
2023/05/09 04:50:41;;;;;;;4.35;3.95;;;14.50;92.30;;;;;;5046184;28;20225;-81
2023/05/09 04:53:08;;;;;;;4.80;3.70;;;14.70;92.10;;;;;;5046604;28;20235;-81
2023/05/09 04:55:36;;;;;;;7.93;4.25;;;14.90;91.50;;;;;;5040303;28;20234;-82
2023/05/09 04:58:03;;;;;;;4.97;3.97;;;15.10;91.30;;;;;;5032122;28;20339;-82
2023/05/09 05:00:30;;;;;;;5.63;4.43;;;15.50;91.10;;;;;;5046409;28;20307;-80
2023/05/09 05:02:57;;;;;;;6.70;4.27;;;15.80;90.80;;;;;;5050301;28;20368;-81
2023/05/09 05:05:24;;;;;;;5.77;4.27;;;16.10;90.40;;;;;;5050062;28;20481;-80
2023/05/09 05:07:54;;;;;;;8.20;4.07;;;16.40;90.00;;;;;;5052053;28;20445;-81
2023/05/09 05:10:29;;;;;;;6.70;4.57;;;16.50;89.30;;;;;;5050951;28;20436;-81
2023/05/09 05:12:57;;;;;;;4.37;3.97;;;16.70;88.90;;;;;;5064104;28;20449;-83
2023/05/09 05:15:25;;;;;;;7.47;5.30;;;17.20;88.60;;;;;;5061579;28;20479;-81
2023/05/09 05:17:52;;;;;;;6.37;4.00;;;17.50;86.70;;;;;;5053414;28;20439;-79
2023/05/09 05:20:19;;;;;;;6.70;4.80;;;17.70;86.40;;;;;;5048280;28;20471;-81
2023/05/09 05:22:46;;;;;;;5.97;4.63;;;17.80;86.00;;;;;;5052135;28;20435;-79
2023/05/09 05:25:13;;;;;;;13.40;5.37;;;18.10;86.00;;;;;;5046263;28;20943;-78
2023/05/09 05:27:40;;;;;;;8.37;4.97;;;18.20;84.60;;;;;;5040491;28;20455;-78
2023/05/09 05:30:09;;;;;;;12.07;4.90;;;18.30;84.80;;;;;;5037877;28;20476;-78
2023/05/09 05:32:36;;;;;;;8.30;5.30;;;17.90;84.60;;;;;;5047517;28;21135;-78
2023/05/09 05:35:04;;;;;;;5.97;4.37;;;17.70;86.00;;;;;;5046358;28;20451;-77
2023/05/09 05:37:31;;;;;;;7.67;5.40;;;17.40;86.30;;;;;;5051451;28;20525;-78
2023/05/09 05:39:58;;;;;;;7.50;4.43;;;17.50;87.00;;;;;;5046561;28;20471;-78
2023/05/09 05:42:25;;;;;;;6.53;5.13;;;17.50;87.30;;;;;;5046935;28;20522;-83
2023/05/09 05:44:52;;;;;;;5.07;4.30;;;17.60;87.30;;;;;;5053846;28;20435;-80
2023/05/09 05:47:20;;;;;;;7.83;4.60;;;18.20;87.00;;;;;;5053365;28;20459;-80
2023/05/09 05:49:47;;;;;;;7.00;4.67;;;18.70;85.20;;;;;;5048510;28;20490;-81
2023/05/09 05:52:14;;;;;;;5.47;4.03;;;19.10;84.20;;;;;;5058792;28;20520;-80
2023/05/09 05:54:41;;;;;;;6.43;4.60;;;19.40;83.10;;;;;;5051804;28;20449;-80
2023/05/09 05:57:08;;;;;;;6.37;5.10;;;20.00;82.40;;;;;;5043167;28;20435;-82
2023/05/09 05:59:35;;;;;;;5.40;4.90;;;19.90;81.60;;;;;;5048787;28;20466;-81
2023/05/09 06:02:01;;;;;;;5.70;4.93;;;20.20;81.00;;;;;;5051441;28;20434;-82
2023/05/09 06:04:31;;;;;;;8.17;4.10;;;20.20;80.10;;;;;;5054191;28;20429;-81
2023/05/09 06:06:58;;;;;;;7.80;4.53;;;20.30;80.40;;;;;;5055561;28;20454;-81
2023/05/09 06:09:25;;;;;;;5.30;3.97;;;20.80;80.20;;;;;;5050556;28;20465;-87
2023/05/09 06:11:52;;;;;;;6.33;4.37;;;21.30;78.80;;;;;;5050402;28;20443;-81
2023/05/09 06:14:19;;;;;;;6.30;4.33;;;21.60;78.30;;;;;;5047384;28;20430;-81
2023/05/09 06:16:46;;;;;;;9.23;5.33;;;21.40;77.80;;;;;;5055876;28;20451;-80
2023/05/09 06:19:16;;;;;;;5.20;4.70;;;21.40;77.70;;;;;;5051452;28;20463;-80
2023/05/09 06:21:44;;;;;;;4.97;4.47;;;21.10;78.30;;;;;;5050082;28;20465;-80
2023/05/09 06:24:11;;;;;;;7.43;5.23;;;21.00;78.60;;;;;;5050853;28;20451;-81
2023/05/09 06:26:38;;;;;;;5.50;5.00;;;21.40;77.90;;;;;;5049777;28;20520;-78
2023/05/09 06:29:06;;;;;;;5.00;4.27;;;21.60;78.20;;;;;;5044800;28;20479;-78
2023/05/09 06:31:37;;;;;;;5.90;4.57;;;21.70;77.70;;;;;;5043193;28;20423;-84
2023/05/09 06:34:05;;;;;;;6.97;5.53;;;21.60;77.70;;;;;;5037389;28;20489;-83
2023/05/09 06:36:32;;;;;;;5.60;4.47;;;22.00;77.70;;;;;;5045088;28;20481;-84
2023/05/09 06:39:01;;;;;;;5.70;4.53;;;22.30;76.90;;;;;;5047351;28;20495;-84
2023/05/09 06:41:28;;;;;;;5.70;5.00;;;23.00;76.60;;;;;;5047565;28;21222;-84
2023/05/09 06:44:08;;;;;;;14.17;5.57;;;23.20;75.80;;;;;;5046526;28;20481;-86
2023/05/09 06:46:35;;;;;;;5.10;4.70;;;23.60;73.90;;;;;;5057873;28;20481;-85
2023/05/09 06:49:02;;;;;;;10.43;6.23;;;24.10;74.00;;;;;;5047752;28;20459;-85
2023/05/09 06:51:30;;;;;;;5.40;4.90;;;24.60;73.10;;;;;;5049135;28;20523;-87
2023/05/09 06:54:00;;;;;;;11.20;4.37;;;24.60;72.60;;;;;;5047287;28;20525;-85
2023/05/09 06:56:29;;;;;;;9.00;4.70;;;24.90;72.30;;;;;;5049621;28;20450;-84
2023/05/09 06:58:56;;;;;;;6.30;5.20;;;25.10;72.20;;;;;;5049272;28;20459;-83
2023/05/09 07:01:25;;;;;;;5.40;4.90;;;25.40;70.80;;;;;;5053790;28;20447;-86
2023/05/09 07:03:51;;;;;;;6.37;5.03;;;25.40;70.40;;;;;;5052942;28;20419;-84
2023/05/09 07:06:18;;;;;;;10.20;5.00;;;25.60;69.70;;;;;;5066617;28;20491;-83
2023/05/09 07:08:51;;;;;;;6.20;5.60;;;26.10;69.80;;;;;;5052335;28;20491;-80
2023/05/09 07:11:18;;;;;;;5.40;4.90;;;26.10;69.60;;;;;;5055260;28;20458;-81
2023/05/09 07:13:46;;;;;;;7.70;5.57;;;26.20;68.70;;;;;;5050478;28;21074;-82
2023/05/09 07:16:13;;;;;;;6.33;4.80;;;26.30;68.80;;;;;;5053052;28;20463;-80
2023/05/09 07:18:40;;;;;;;6.37;5.70;;;26.70;68.60;;;;;;5053900;28;20502;-79
2023/05/09 07:21:07;;;;;;;6.73;6.03;;;26.20;67.00;;;;;;5054994;28;20431;-82
2023/05/09 07:23:34;;;;;;;6.73;5.27;;;26.70;68.00;;;;;;5056427;28;20450;-80
2023/05/09 07:26:01;;;;;;;8.13;6.23;;;26.80;67.90;;;;;;5055910;28;20801;-81
2023/05/09 07:28:28;;;;;;;8.10;5.53;;;26.50;68.50;;;;;;5056575;28;20466;-81
2023/05/09 07:30:57;;;;;;;7.70;6.20;;;26.60;68.10;;;;;;5056919;28;20463;-80
2023/05/09 07:33:24;;;;;;;8.60;6.17;;;26.30;68.60;;;;;;5050567;28;20482;-81
2023/05/09 07:35:51;;;;;;;6.90;6.20;;;26.20;68.80;;;;;;5053324;28;20443;-82
2023/05/09 07:38:19;;;;;;;7.10;6.40;;;25.90;69.20;;;;;;5055872;28;21002;-83
2023/05/09 07:40:46;;;;;;;6.10;5.60;;;25.80;69.90;;;;;;5054414;28;20770;-81
2023/05/09 07:43:12;;;;;;;8.10;6.50;;;26.20;69.80;;;;;;5050225;28;20526;-81
2023/05/09 07:45:39;;;;;;;6.70;5.77;;;26.00;69.60;;;;;;5045300;28;20446;-80
2023/05/09 07:48:08;;;;;;;6.77;5.80;;;26.30;70.00;;;;;;5049759;28;20450;-80
2023/05/09 07:50:35;;;;;;;7.90;5.50;;;27.10;69.00;;;;;;5046059;28;20451;-80
2023/05/09 07:53:02;;;;;;;7.40;6.63;;;27.30;68.20;;;;;;5054665;28;20465;-80
2023/05/09 07:55:29;;;;;;;10.73;6.20;;;27.60;67.40;;;;;;5053647;28;20455;-81
2023/05/09 07:57:56;;;;;;;11.30;9.37;;;27.80;67.40;;;;;;5050594;28;20494;-82
2023/05/09 08:00:24;;;;;;;7.93;6.97;;;27.90;67.00;;;;;;5050383;28;20518;-81
2023/05/09 08:02:51;;;;;;;8.30;6.40;;;27.80;66.60;;;;;;5055375;28;20906;-81
2023/05/09 08:05:20;;;;;;;7.83;7.00;;;27.00;66.70;;;;;;5050719;28;20855;-81
2023/05/09 08:07:47;;;;;;;9.13;7.17;;;27.50;68.10;;;;;;5043715;28;20453;-81
2023/05/09 08:10:15;;;;;;;7.90;7.20;;;27.30;68.40;;;;;;5051036;28;20471;-81
2023/05/09 08:12:43;;;;;;;8.13;7.33;;;27.40;68.80;;;;;;5052105;28;20478;-80
2023/05/09 08:15:10;;;;;;;9.57;8.60;;;27.40;68.70;;;;;;5053545;28;20427;-81
2023/05/09 08:17:38;;;;;;;12.00;8.37;;;27.50;69.10;;;;;;5054539;28;20447;-82
2023/05/09 08:20:07;;;;;;;7.23;6.40;;;26.70;69.60;;;;;;5045504;28;20486;-84
2023/05/09 08:22:44;;;;;;;8.33;7.53;;;26.70;71.90;;;;;;5053689;28;20474;-82
2023/05/09 08:25:13;;;;;;;7.90;7.20;;;26.70;70.60;;;;;;5052991;28;20434;-84
2023/05/09 08:27:40;;;;;;;8.17;7.37;;;26.30;71.30;;;;;;5052312;28;20518;-82
2023/05/09 08:30:08;;;;;;;11.23;7.40;;;26.00;71.90;;;;;;5055547;28;20505;-82
2023/05/09 08:32:35;;;;;;;10.20;7.93;;;25.90;73.40;;;;;;5057984;28;20461;-83
2023/05/09 08:35:02;;;;;;;8.90;8.10;;;25.90;73.60;;;;;;5053036;28;20443;-82
2023/05/09 08:37:29;;;;;;;8.87;8.13;;;26.40;72.70;;;;;;5050941;28;20419;-81
2023/05/09 08:39:57;;;;;;;9.00;8.10;;;26.20;72.00;;;;;;5051531;28;20511;-82
2023/05/09 08:42:26;;;;;;;9.57;8.57;;;26.70;72.10;;;;;;5049588;28;20913;-80
2023/05/09 08:44:53;;;;;;;8.80;8.00;;;26.50;72.20;;;;;;5050292;28;20455;-83
2023/05/09 08:47:21;;;;;;;10.47;9.30;;;26.70;72.20;;;;;;5046738;28;20431;-82
2023/05/09 08:49:48;;;;;;;10.33;9.33;;;26.80;71.40;;;;;;5041052;28;20467;-84
2023/05/09 08:52:15;;;;;;;8.90;7.97;;;26.70;71.80;;;;;;5047551;28;20451;-82
2023/05/09 08:54:43;;;;;;;9.70;8.80;;;26.00;72.40;;;;;;5048765;28;20947;-83
2023/05/09 08:57:11;;;;;;;12.20;8.67;;;25.70;73.80;;;;;;5050302;28;20439;-82
2023/05/09 08:59:42;;;;;;;9.90;9.00;;;25.50;74.20;;;;;;5046437;28;20521;-81
2023/05/09 09:02:13;;;;;;;9.87;8.87;;;24.90;75.70;;;;;;5047527;28;20454;-81
2023/05/09 09:04:40;;;;;;;10.77;9.30;;;25.10;76.20;;;;;;5042593;28;20557;-81
2023/05/09 09:07:08;;;;;;;9.93;8.93;;;25.00;76.00;;;;;;5045763;28;20457;-80
2023/05/09 09:09:37;;;;;;;10.10;8.60;;;25.20;75.80;;;;;;5052815;28;20463;-82
2023/05/09 09:12:08;;;;;;;9.57;8.57;;;25.50;75.80;;;;;;5045462;28;20439;-80
2023/05/09 09:14:39;;;;;;;10.57;8.87;;;25.90;75.30;;;;;;5041294;28;20475;-83
2023/05/09 09:17:10;;;;;;;9.73;8.73;;;26.60;74.40;;;;;;5046725;28;20451;-80
2023/05/09 09:19:40;;;;;;;9.43;8.53;;;26.70;72.90;;;;;;5024516;23;20896;-75
2023/05/09 09:22:10;;;;;;;9.13;8.23;;;27.20;73.00;;;;;;5021559;28;20534;-77
2023/05/09 09:24:37;;;;;;;9.50;8.70;;;27.70;71.70;;;;;;5010418;28;20437;-76
2023/05/09 09:27:06;;;;;;;16.60;9.70;;;27.50;72.10;;;;;;5021357;28;20530;-74
2023/05/09 09:29:33;;;;;;;10.53;8.87;;;27.50;71.60;;;;;;5015930;28;20462;-75
2023/05/09 09:32:04;;;;;;;10.50;9.43;;;27.60;71.30;;;;;;5016115;28;20439;-75
2023/05/09 09:34:32;;;;;;;10.00;9.00;;;27.10;72.10;;;;;;5023957;28;20510;-75
2023/05/09 09:36:59;;;;;;;9.80;8.80;;;26.80;73.10;;;;;;5018952;28;20427;-77
2023/05/09 09:39:26;;;;;;;11.00;9.10;;;26.50;74.60;;;;;;5022381;28;20460;-74
2023/05/09 09:41:54;;;;;;;8.83;7.93;;;26.60;74.50;;;;;;5008859;28;20439;-75
2023/05/09 09:44:23;;;;;;;10.27;9.27;;;26.70;74.20;;;;;;5009443;28;20534;-74
2023/05/09 09:46:51;;;;;;;10.63;8.77;;;26.40;74.90;;;;;;5017811;28;20949;-76
2023/05/09 09:49:20;;;;;;;13.63;10.93;;;26.70;75.00;;;;;;5020536;28;20551;-74
2023/05/09 09:51:51;;;;;;;11.43;10.00;;;26.80;74.80;;;;;;5013574;28;20448;-76
2023/05/09 09:54:18;;;;;;;9.53;8.63;;;26.60;74.70;;;;;;5016786;28;20471;-74
2023/05/09 09:56:47;;;;;;;13.30;8.30;;;26.10;75.40;;;;;;5012185;28;20452;-73
2023/05/09 09:59:15;;;;;;;11.67;10.57;;;26.30;76.00;;;;;;5025361;28;20551;-76
2023/05/09 10:01:56;;;;;;;9.50;8.30;;;26.30;75.60;;;;;;5022850;28;20530;-75
2023/05/09 10:04:26;;;;;;;12.83;10.30;;;26.30;76.40;;;;;;5023589;28;20549;-73
2023/05/09 10:06:54;;;;;;;9.83;8.93;;;25.80;76.60;;;;;;5012960;28;20442;-75
2023/05/09 10:09:22;;;;;;;9.50;8.57;;;25.60;77.90;;;;;;5013151;28;20491;-75
2023/05/09 10:11:51;;;;;;;9.90;9.00;;;25.80;78.30;;;;;;5024819;28;20443;-75
2023/05/09 10:14:20;;;;;;;10.37;9.37;;;26.00;77.40;;;;;;5007701;28;20481;-75
2023/05/09 10:16:48;;;;;;;11.33;10.23;;;25.60;77.30;;;;;;5014501;28;20437;-74
2023/05/09 10:19:20;;;;;;;10.27;9.17;;;25.60;77.70;;;;;;5019436;28;20546;-76
2023/05/09 10:21:53;;;;;;;10.37;8.40;;;25.60;78.70;;;;;;5014200;28;20532;-76
2023/05/09 10:24:27;;;;;;;11.63;10.13;;;25.30;78.50;;;;;;5022586;28;20507;-76
2023/05/09 10:27:03;;;;;;;11.33;8.70;;;25.40;78.60;;;;;;4994687;28;20518;-74
2023/05/09 10:29:34;;;;;;;10.33;9.30;;;25.60;78.10;;;;;;5006775;28;20752;-75
2023/05/09 10:32:08;;;;;;;9.50;8.40;;;25.50;78.50;;;;;;5006681;28;20490;-77
2023/05/09 10:34:39;;;;;;;11.93;9.27;;;25.30;79.00;;;;;;5008601;28;20604;-75
2023/05/09 10:37:08;;;;;;;10.43;9.33;;;25.00;79.50;;;;;;5025343;28;20435;-77
2023/05/09 10:39:37;;;;;;;9.87;8.87;;;24.80;80.10;;;;;;5007412;28;20491;-75
2023/05/09 10:42:05;;;;;;;10.33;9.30;;;24.60;79.90;;;;;;5025323;28;20431;-74
2023/05/09 10:44:33;;;;;;;12.63;9.20;;;24.60;80.30;;;;;;5017567;28;20527;-75
2023/05/09 10:47:01;;;;;;;9.73;8.47;;;24.40;80.30;;;;;;5020731;28;20438;-76
2023/05/09 10:49:28;;;;;;;9.80;8.80;;;24.00;81.80;;;;;;5024621;28;20466;-75
2023/05/09 10:51:55;;;;;;;11.53;9.17;;;23.70;82.60;;;;;;5030335;28;20477;-76
2023/05/09 10:54:32;;;;;;;8.83;7.93;;;23.60;82.70;;;;;;5028177;28;20477;-75
2023/05/09 10:57:00;;;;;;;10.23;7.87;;;23.80;82.40;;;;;;5025503;28;20450;-76
2023/05/09 10:59:36;;;;;;;9.10;8.30;;;23.90;82.60;;;;;;5030315;28;20467;-75
2023/05/09 11:02:04;;;;;;;11.63;8.63;;;23.90;82.90;;;;;;5019270;28;20442;-76
2023/05/09 11:04:31;;;;;;;8.60;7.80;;;24.20;82.50;;;;;;5026881;28;20451;-75
2023/05/09 11:06:59;;;;;;;12.40;8.30;;;24.00;82.30;;;;;;5044214;28;20442;-75
2023/05/09 11:09:31;;;;;;;14.43;8.30;;;24.10;82.30;;;;;;5035733;28;20473;-74
2023/05/09 11:12:09;;;;;;;11.17;9.30;;;24.20;82.00;;;;;;5018462;28;20922;-76
2023/05/09 11:14:41;;;;;;;10.03;8.90;;;24.40;82.30;;;;;;5008050;28;20514;-74
2023/05/09 11:17:11;;;;;;;10.63;7.93;;;24.40;82.10;;;;;;5009249;28;20506;-77
2023/05/09 11:19:58;;;;;;;12.33;9.17;;;24.60;81.80;;;;;;5015642;28;20499;-74
2023/05/09 11:22:27;;;;;;;15.37;9.83;;;24.40;81.30;;;;;;5010176;28;20928;-74
2023/05/09 11:25:04;;;;;;;10.80;8.13;;;24.20;81.50;;;;;;5011808;28;20438;-76
2023/05/09 11:27:42;;;;;;;10.10;9.10;;;24.30;82.00;;;;;;5001307;28;20440;-76
2023/05/09 11:30:10;;;;;;;9.43;8.63;;;24.30;82.20;;;;;;5011187;28;20554;-75
2023/05/09 11:32:46;;;;;;;12.43;9.10;;;24.40;82.00;;;;;;5025141;28;20821;-74
2023/05/09 11:35:15;;;;;;;10.10;9.17;;;24.30;81.90;;;;;;5012446;28;20827;-74
2023/05/09 11:37:46;;;;;;;10.10;8.47;;;24.20;82.50;;;;;;5022172;28;20450;-74
2023/05/09 11:40:16;;;;;;;10.20;7.87;;;24.20;82.90;;;;;;5031238;28;20467;-75
2023/05/09 11:42:45;;;;;;;8.87;7.97;;;24.30;83.10;;;;;;5023995;28;20452;-75
2023/05/09 11:45:13;;;;;;;12.00;8.93;;;24.20;82.70;;;;;;5026336;28;20837;-75
2023/05/09 11:47:40;;;;;;;12.50;8.50;;;24.10;83.10;;;;;;5026226;28;20739;-73
2023/05/09 11:50:09;;;;;;;9.30;7.87;;;24.00;83.20;;;;;;5023787;28;20462;-75
2023/05/09 11:52:36;;;;;;;8.27;7.50;;;24.20;83.30;;;;;;5029328;28;20958;-76
2023/05/09 11:55:03;;;;;;;10.20;7.60;;;24.60;83.10;;;;;;5021600;28;20908;-75
2023/05/09 11:57:31;;;;;;;11.40;6.60;;;24.70;82.30;;;;;;5025616;28;20447;-76
2023/05/09 12:00:01;;;;;;;11.13;7.10;;;24.50;83.20;;;;;;5023018;28;20490;-73
2023/05/09 12:02:28;;;;;;;8.30;7.60;;;24.50;82.40;;;;;;5026695;28;20509;-73
2023/05/09 12:04:55;;;;;;;8.57;7.77;;;24.40;82.50;;;;;;5026333;28;20435;-76
2023/05/09 12:07:22;;;;;;;9.50;8.43;;;24.40;83.10;;;;;;5022159;28;20817;-76
2023/05/09 12:09:51;;;;;;;9.50;7.90;;;24.40;82.50;;;;;;5024507;28;20603;-75
2023/05/09 12:12:20;;;;;;;8.60;7.80;;;24.70;82.30;;;;;;5022869;28;20502;-74
2023/05/09 12:14:48;;;;;;;7.80;7.03;;;24.50;81.70;;;;;;5017086;28;20487;-74
2023/05/09 12:17:15;;;;;;;8.53;7.70;;;24.40;82.60;;;;;;5007409;28;20445;-73
2023/05/09 12:19:44;;;;;;;12.90;9.90;;;24.50;82.40;;;;;;5015288;28;20463;-75
2023/05/09 12:22:10;;;;;;;13.20;11.03;;;24.40;81.40;;;;;;5012053;28;20524;-74
2023/05/09 12:24:37;;;;;;;9.23;8.03;;;24.40;82.20;;;;;;5024669;28;20941;-74
2023/05/09 12:27:06;;;;;;;9.40;8.50;;;24.40;82.90;;;;;;5013478;28;20438;-74
2023/05/09 12:29:34;;;;;;;9.53;7.60;;;24.20;82.10;;;;;;5010808;28;20496;-76
2023/05/09 12:32:02;;;;;;;9.10;8.27;;;24.20;82.60;;;;;;5019994;28;20464;-75
2023/05/09 12:34:29;;;;;;;9.30;7.30;;;24.20;82.70;;;;;;5011678;28;20611;-73
2023/05/09 12:36:58;;;;;;;8.53;7.60;;;24.30;82.30;;;;;;5017222;28;20443;-74
2023/05/09 12:39:25;;;;;;;8.40;7.03;;;24.20;82.30;;;;;;5016071;28;20801;-75
2023/05/09 12:41:54;;;;;;;7.00;6.30;;;24.20;82.40;;;;;;5025035;28;20965;-74
2023/05/09 12:44:23;;;;;;;7.93;7.13;;;23.90;82.80;;;;;;5021377;28;20929;-76
2023/05/09 12:46:57;;;;;;;8.87;7.00;;;24.10;83.30;;;;;;5013887;28;20953;-76
2023/05/09 12:49:26;;;;;;;8.73;7.93;;;23.90;83.30;;;;;;5019011;28;20480;-73
2023/05/09 12:51:54;;;;;;;9.77;8.40;;;23.90;83.40;;;;;;5026590;28;20439;-75